sensor_id;sensor_type;location;lat;lon;timestamp;pressure;altitude;pressure_sealevel;temperature;humidity
37860;BME280;23698;52.014;5.190;2023-05-08T05:00:32;101948.84;;;14.40;100.00
37860;BME280;23698;52.014;5.190;2023-05-08T05:03:19;101949.22;;;14.37;100.00
37860;BME280;23698;52.014;5.190;2023-05-08T05:06:06;101952.13;;;14.50;100.00
37860;BME280;23698;52.014;5.190;2023-05-08T05:08:53;101954.28;;;14.55;100.00
37860;BME280;23698;52.014;5.190;2023-05-08T05:11:39;101954.38;;;14.62;100.00
37860;BME280;23698;52.014;5.190;2023-05-08T05:14:26;101959.56;;;14.71;100.00
37860;BME280;23698;52.014;5.190;2023-05-08T07:13:46;101988.97;;;18.49;100.00
37860;BME280;23698;52.014;5.190;2023-05-08T07:16:33;101988.84;;;18.82;100.00
37860;BME280;23698;52.014;5.190;2023-05-08T07:19:22;101984.03;;;19.41;100.00
37860;BME280;23698;52.014;5.190;2023-05-08T07:22:08;101983.41;;;19.90;100.00
37860;BME280;23698;52.014;5.190;2023-05-08T07:24:55;101993.69;;;19.76;100.00
37860;BME280;23698;52.014;5.190;2023-05-08T07:27:41;101992.66;;;19.77;100.00
37860;BME280;23698;52.014;5.190;2023-05-08T07:30:29;101997.00;;;19.59;100.00
37860;BME280;23698;52.014;5.190;2023-05-08T07:33:16;101992.59;;;19.52;100.00
37860;BME280;23698;52.014;5.190;2023-05-08T07:36:03;101988.91;;;19.65;100.00
37860;BME280;23698;52.014;5.190;2023-05-08T07:38:49;101985.31;;;19.39;100.00
37860;BME280;23698;52.014;5.190;2023-05-08T07:41:36;101984.88;;;19.10;100.00
37860;BME280;23698;52.014;5.190;2023-05-08T07:44:25;101991.19;;;19.17;100.00
37860;BME280;23698;52.014;5.190;2023-05-08T07:47:12;101988.66;;;19.73;100.00
37860;BME280;23698;52.014;5.190;2023-05-08T07:49:59;101990.69;;;19.84;100.00
37860;BME280;23698;52.014;5.190;2023-05-08T07:52:46;101994.88;;;19.87;100.00
37860;BME280;23698;52.014;5.190;2023-05-08T07:55:35;101993.47;;;19.77;100.00
37860;BME280;23698;52.014;5.190;2023-05-08T07:58:21;101997.00;;;20.65;100.00
37860;BME280;23698;52.014;5.190;2023-05-08T08:01:08;101997.31;;;19.76;100.00
37860;BME280;23698;52.014;5.190;2023-05-08T08:03:55;101992.03;;;20.37;100.00
37860;BME280;23698;52.014;5.190;2023-05-08T08:06:42;101992.22;;;19.16;100.00
37860;BME280;23698;52.014;5.190;2023-05-08T08:09:28;101986.69;;;19.23;100.00
37860;BME280;23698;52.014;5.190;2023-05-08T08:12:15;101985.34;;;19.00;100.00
37860;BME280;23698;52.014;5.190;2023-05-08T08:15:02;101983.13;;;19.73;100.00
37860;BME280;23698;52.014;5.190;2023-05-08T08:17:49;101989.75;;;20.34;100.00
37860;BME280;23698;52.014;5.190;2023-05-08T08:20:37;101977.22;;;19.19;100.00
37860;BME280;23698;52.014;5.190;2023-05-08T08:23:24;101979.66;;;19.59;100.00
37860;BME280;23698;52.014;5.190;2023-05-08T08:26:10;101988.03;;;19.96;100.00
37860;BME280;23698;52.014;5.190;2023-05-08T08:28:57;101994.56;;;20.38;100.00
37860;BME280;23698;52.014;5.190;2023-05-08T08:31:43;101989.50;;;20.35;100.00
37860;BME280;23698;52.014;5.190;2023-05-08T08:34:32;101994.31;;;20.59;100.00
37860;BME280;23698;52.014;5.190;2023-05-08T08:37:20;101992.25;;;20.17;100.00
37860;BME280;23698;52.014;5.190;2023-05-08T08:40:07;102010.53;;;20.85;100.00
37860;BME280;23698;52.014;5.190;2023-05-08T08:42:54;102009.19;;;19.45;100.00
37860;BME280;23698;52.014;5.190;2023-05-08T08:45:49;102020.47;;;20.49;100.00
37860;BME280;23698;52.014;5.190;2023-05-08T08:49:21;102022.31;;;20.55;100.00
37860;BME280;23698;52.014;5.190;2023-05-08T08:53:34;102032.34;;;20.31;100.00
37860;BME280;23698;52.014;5.190;2023-05-08T08:56:25;102032.13;;;19.89;100.00
37860;BME280;23698;52.014;5.190;2023-05-08T08:59:15;102035.00;;;19.05;100.00
37860;BME280;23698;52.014;5.190;2023-05-08T09:02:12;102036.75;;;19.32;100.00
37860;BME280;23698;52.014;5.190;2023-05-08T09:05:06;102041.09;;;19.46;100.00
37860;BME280;23698;52.014;5.190;2023-05-08T09:07:57;102032.47;;;19.36;100.00
37860;BME280;23698;52.014;5.190;2023-05-08T09:10:46;102032.19;;;20.45;100.00
37860;BME280;23698;52.014;5.190;2023-05-08T09:17:10;102034.66;;;19.91;100.00
37860;BME280;23698;52.014;5.190;2023-05-08T09:19:57;102031.03;;;20.15;100.00
37860;BME280;23698;52.014;5.190;2023-05-08T09:22:44;102028.91;;;19.60;100.00
37860;BME280;23698;52.014;5.190;2023-05-08T09:25:40;102036.22;;;19.80;100.00
37860;BME280;23698;52.014;5.190;2023-05-08T09:28:28;102040.78;;;20.55;100.00
37860;BME280;23698;52.014;5.190;2023-05-08T09:31:15;102042.09;;;21.20;100.00
37860;BME280;23698;52.014;5.190;2023-05-08T09:34:12;102044.66;;;21.63;100.00
37860;BME280;23698;52.014;5.190;2023-05-08T09:37:11;102054.31;;;22.32;100.00
37860;BME280;23698;52.014;5.190;2023-05-08T09:40:14;102052.31;;;21.61;100.00
37860;BME280;23698;52.014;5.190;2023-05-08T09:43:11;102048.63;;;21.91;100.00
37860;BME280;23698;52.014;5.190;2023-05-08T09:46:18;102055.06;;;21.61;100.00
37860;BME280;23698;52.014;5.190;2023-05-08T09:49:05;102065.09;;;21.86;100.00
37860;BME280;23698;52.014;5.190;2023-05-08T09:51:52;102058.81;;;21.79;100.00
37860;BME280;23698;52.014;5.190;2023-05-08T09:54:39;102053.63;;;20.98;100.00
37860;BME280;23698;52.014;5.190;2023-05-08T09:57:27;102052.78;;;19.98;100.00
37860;BME280;23698;52.014;5.190;2023-05-08T10:00:14;102053.16;;;20.83;100.00
37860;BME280;23698;52.014;5.190;2023-05-08T10:03:02;102056.53;;;21.64;100.00
37860;BME280;23698;52.014;5.190;2023-05-08T10:05:49;102063.91;;;22.29;100.00
37860;BME280;23698;52.014;5.190;2023-05-08T10:08:36;102062.69;;;21.47;100.00
37860;BME280;23698;52.014;5.190;2023-05-08T10:11:22;102064.63;;;22.01;100.00
37860;BME280;23698;52.014;5.190;2023-05-08T10:14:08;102061.97;;;21.94;100.00
37860;BME280;23698;52.014;5.190;2023-05-08T12:01:53;102019.13;;;22.39;100.00
37860;BME280;23698;52.014;5.190;2023-05-08T12:04:53;102023.44;;;22.11;100.00
37860;BME280;23698;52.014;5.190;2023-05-08T12:07:50;102017.22;;;22.16;100.00
37860;BME280;23698;52.014;5.190;2023-05-08T12:10:48;102015.38;;;21.98;100.00
37860;BME280;23698;52.014;5.190;2023-05-08T12:13:35;102017.53;;;22.55;100.00
37860;BME280;23698;52.014;5.190;2023-05-08T12:16:22;102016.53;;;22.61;100.00
37860;BME280;23698;52.014;5.190;2023-05-08T12:19:14;102025.22;;;22.17;100.00
37860;BME280;23698;52.014;5.190;2023-05-08T12:25:20;102011.16;;;23.07;100.00
37860;BME280;23698;52.014;5.190;2023-05-08T13:03:33;101976.16;;;25.08;100.00
37860;BME280;23698;52.014;5.190;2023-05-08T13:06:21;101976.94;;;24.54;100.00
37860;BME280;23698;52.014;5.190;2023-05-08T13:09:07;101970.34;;;24.60;100.00
37860;BME280;23698;52.014;5.190;2023-05-08T13:33:37;101963.63;;;23.78;100.00
37860;BME280;23698;52.014;5.190;2023-05-08T13:36:38;101957.84;;;22.99;100.00
37860;BME280;23698;52.014;5.190;2023-05-08T13:39:24;101956.00;;;23.17;100.00
37860;BME280;23698;52.014;5.190;2023-05-08T13:42:10;101963.81;;;23.37;100.00
37860;BME280;23698;52.014;5.190;2023-05-08T13:44:57;101958.31;;;22.79;100.00
37860;BME280;23698;52.014;5.190;2023-05-08T13:47:44;101957.97;;;22.76;100.00
37860;BME280;23698;52.014;5.190;2023-05-08T13:50:31;101953.03;;;22.78;100.00
37860;BME280;23698;52.014;5.190;2023-05-08T14:39:00;101935.97;;;23.27;100.00
37860;BME280;23698;52.014;5.190;2023-05-08T14:42:42;101937.72;;;22.18;100.00
37860;BME280;23698;52.014;5.190;2023-05-08T14:45:36;101936.84;;;22.41;100.00
37860;BME280;23698;52.014;5.190;2023-05-08T14:48:22;101925.09;;;23.54;100.00
37860;BME280;23698;52.014;5.190;2023-05-08T14:51:09;101923.47;;;22.78;100.00
37860;BME280;23698;52.014;5.190;2023-05-08T14:54:10;101927.53;;;23.05;100.00
37860;BME280;23698;52.014;5.190;2023-05-08T14:57:04;101925.75;;;23.27;100.00
37860;BME280;23698;52.014;5.190;2023-05-08T14:59:52;101925.59;;;23.51;100.00
37860;BME280;23698;52.014;5.190;2023-05-08T15:02:53;101928.31;;;23.00;100.00
37860;BME280;23698;52.014;5.190;2023-05-08T15:05:39;101924.91;;;23.44;100.00
37860;BME280;23698;52.014;5.190;2023-05-08T15:08:33;101937.00;;;23.21;100.00
37860;BME280;23698;52.014;5.190;2023-05-08T15:11:22;101925.28;;;22.56;100.00
37860;BME280;23698;52.014;5.190;2023-05-08T15:14:08;101935.78;;;22.42;100.00
37860;BME280;23698;52.014;5.190;2023-05-08T15:16:55;101932.22;;;22.06;100.00
37860;BME280;23698;52.014;5.190;2023-05-08T15:19:41;101930.38;;;22.35;100.00
37860;BME280;23698;52.014;5.190;2023-05-08T15:22:36;101924.25;;;22.91;100.00
37860;BME280;23698;52.014;5.190;2023-05-08T15:27:26;101926.34;;;22.02;100.00
37860;BME280;23698;52.014;5.190;2023-05-08T15:33:55;101921.88;;;22.13;100.00
37860;BME280;23698;52.014;5.190;2023-05-08T15:36:41;101920.63;;;21.68;100.00
37860;BME280;23698;52.014;5.190;2023-05-08T15:39:28;101927.78;;;21.81;100.00
37860;BME280;23698;52.014;5.190;2023-05-08T15:50:14;101920.34;;;21.46;100.00
37860;BME280;23698;52.014;5.190;2023-05-08T15:54:55;101915.94;;;21.81;100.00
37860;BME280;23698;52.014;5.190;2023-05-08T17:32:09;101907.00;;;20.10;100.00
37860;BME280;23698;52.014;5.190;2023-05-08T17:35:25;101903.66;;;19.65;100.00
37860;BME280;23698;52.014;5.190;2023-05-08T17:38:52;101901.34;;;19.61;100.00
37860;BME280;23698;52.014;5.190;2023-05-08T17:51:31;101894.84;;;19.56;100.00
37860;BME280;23698;52.014;5.190;2023-05-08T17:58:55;101900.53;;;19.11;100.00
37860;BME280;23698;52.014;5.190;2023-05-08T18:04:50;101897.59;;;19.05;100.00
37860;BME280;23698;52.014;5.190;2023-05-08T18:11:27;101895.00;;;19.61;100.00
37860;BME280;23698;52.014;5.190;2023-05-08T18:14:18;101887.72;;;18.98;100.00
37860;BME280;23698;52.014;5.190;2023-05-08T18:17:05;101888.78;;;19.47;100.00
37860;BME280;23698;52.014;5.190;2023-05-08T18:23:40;101888.41;;;20.24;100.00
37860;BME280;23698;52.014;5.190;2023-05-08T18:26:50;101897.56;;;20.36;100.00
37860;BME280;23698;52.014;5.190;2023-05-08T18:29:37;101898.81;;;20.04;100.00
37860;BME280;23698;52.014;5.190;2023-05-08T18:32:23;101906.72;;;20.49;100.00
37860;BME280;23698;52.014;5.190;2023-05-08T18:35:11;101912.72;;;20.09;100.00
37860;BME280;23698;52.014;5.190;2023-05-08T18:37:58;101912.25;;;19.93;100.00
37860;BME280;23698;52.014;5.190;2023-05-08T18:40:45;101914.66;;;19.65;100.00
37860;BME280;23698;52.014;5.190;2023-05-08T18:43:38;101916.84;;;19.81;100.00
37860;BME280;23698;52.014;5.190;2023-05-08T18:46:28;101913.72;;;19.96;100.00
37860;BME280;23698;52.014;5.190;2023-05-08T18:49:15;101899.09;;;19.95;100.00
37860;BME280;23698;52.014;5.190;2023-05-08T18:52:01;101893.53;;;20.21;100.00
37860;BME280;23698;52.014;5.190;2023-05-08T18:54:47;101890.31;;;20.24;100.00
37860;BME280;23698;52.014;5.190;2023-05-08T18:57:34;101888.41;;;20.06;100.00
37860;BME280;23698;52.014;5.190;2023-05-08T19:07:56;101887.88;;;19.53;100.00
37860;BME280;23698;52.014;5.190;2023-05-08T19:10:42;101894.56;;;19.64;100.00
37860;BME280;23698;52.014;5.190;2023-05-08T19:13:29;101884.78;;;19.68;100.00
37860;BME280;23698;52.014;5.190;2023-05-08T19:16:15;101883.09;;;19.67;100.00
37860;BME280;23698;52.014;5.190;2023-05-08T19:19:02;101872.25;;;19.54;100.00
37860;BME280;23698;52.014;5.190;2023-05-08T19:21:49;101875.88;;;19.48;100.00
37860;BME280;23698;52.014;5.190;2023-05-08T19:24:37;101872.63;;;19.57;100.00
37860;BME280;23698;52.014;5.190;2023-05-08T19:27:24;101878.56;;;19.54;100.00
37860;BME280;23698;52.014;5.190;2023-05-08T19:30:13;101886.56;;;19.12;100.00
37860;BME280;23698;52.014;5.190;2023-05-08T19:33:11;101893.94;;;18.80;100.00
37860;BME280;23698;52.014;5.190;2023-05-08T19:36:00;101888.22;;;18.81;100.00
37860;BME280;23698;52.014;5.190;2023-05-08T19:38:46;101892.88;;;19.13;100.00
37860;BME280;23698;52.014;5.190;2023-05-08T19:41:34;101898.44;;;19.06;100.00
37860;BME280;23698;52.014;5.190;2023-05-08T19:44:20;101900.31;;;18.74;100.00
37860;BME280;23698;52.014;5.190;2023-05-08T19:47:07;101912.84;;;18.63;100.00
37860;BME280;23698;52.014;5.190;2023-05-08T19:49:53;101900.34;;;18.28;100.00
37860;BME280;23698;52.014;5.190;2023-05-08T19:52:40;101899.00;;;18.44;100.00
37860;BME280;23698;52.014;5.190;2023-05-08T19:55:26;101907.25;;;18.76;100.00
37860;BME280;23698;52.014;5.190;2023-05-08T19:58:14;101902.56;;;18.45;100.00
37860;BME280;23698;52.014;5.190;2023-05-08T22:02:24;101819.13;;;18.53;100.00
37860;BME280;23698;52.014;5.190;2023-05-08T22:05:11;101810.31;;;18.44;100.00
37860;BME280;23698;52.014;5.190;2023-05-08T22:07:59;101796.22;;;18.34;100.00
37860;BME280;23698;52.014;5.190;2023-05-08T22:10:45;101802.88;;;18.13;100.00
37860;BME280;23698;52.014;5.190;2023-05-08T22:13:31;101792.22;;;17.84;100.00
